createdAt,value
2023-05-18T00:00:13.428Z,6.90
2023-05-18T00:01:16.417Z,8.90
2023-05-18T00:02:19.053Z,8.20
2023-05-18T00:03:21.887Z,7.80
2023-05-18T00:04:25.155Z,7.30
2023-05-18T00:05:27.947Z,7.55
2023-05-18T00:06:31.333Z,7.80
2023-05-18T00:07:34.210Z,7.50
2023-05-18T00:08:37.669Z,7.55
2023-05-18T00:09:39.940Z,7.10
2023-05-18T00:10:42.576Z,6.30
2023-05-18T00:11:44.790Z,6.30
2023-05-18T00:12:47.315Z,7.60
2023-05-18T00:13:49.931Z,8.40
2023-05-18T00:14:52.514Z,7.10
2023-05-18T00:15:54.745Z,7.40
2023-05-18T00:16:57.429Z,8.20
2023-05-18T00:17:59.672Z,8.40
2023-05-18T00:19:02.175Z,6.90
2023-05-18T00:20:06.413Z,7.09
2023-05-18T00:21:08.925Z,8.20
2023-05-18T00:22:11.230Z,8.30
2023-05-18T00:23:13.991Z,8.30
2023-05-18T00:24:18.118Z,7.30
2023-05-18T00:25:21.603Z,7.20
2023-05-18T00:26:24.516Z,8.40
2023-05-18T00:27:27.195Z,7.80
2023-05-18T00:28:29.514Z,9.40
2023-05-18T00:29:31.860Z,7.50
2023-05-18T00:30:34.462Z,8.00
2023-05-18T00:31:37.720Z,7.70
2023-05-18T00:32:42.871Z,7.10
2023-05-18T00:33:46.959Z,8.30
2023-05-18T00:34:49.277Z,8.50
2023-05-18T00:35:51.513Z,8.00
2023-05-18T00:36:54.118Z,8.90
2023-05-18T00:37:56.461Z,7.50
2023-05-18T00:38:59.663Z,7.70
2023-05-18T00:40:02.042Z,8.00
2023-05-18T00:41:04.452Z,7.90
2023-05-18T00:42:06.896Z,8.30
2023-05-18T00:43:09.832Z,9.00
2023-05-18T00:44:12.414Z,6.73
2023-05-18T00:45:14.890Z,9.40
2023-05-18T00:46:17.804Z,8.00
2023-05-18T00:47:20.900Z,7.40
2023-05-18T00:48:23.070Z,8.50
2023-05-18T00:49:26.378Z,6.50
2023-05-18T00:50:28.785Z,8.70
2023-05-18T00:51:32.669Z,8.60
2023-05-18T00:52:36.130Z,7.20
2023-05-18T00:53:39.751Z,9.40
2023-05-18T00:54:43.041Z,7.20
2023-05-18T00:55:45.258Z,9.90
2023-05-18T00:56:48.057Z,8.00
2023-05-18T00:57:52.006Z,7.55
2023-05-18T00:58:55.748Z,7.00
2023-05-18T01:00:02.536Z,7.40
2023-05-18T01:01:05.278Z,7.30
2023-05-18T01:02:08.504Z,8.50
2023-05-18T01:03:11.733Z,7.90
2023-05-18T01:04:14.568Z,8.30
2023-05-18T01:05:17.073Z,7.60
2023-05-18T01:06:19.569Z,9.00
2023-05-18T01:07:22.236Z,8.30
2023-05-18T01:08:26.719Z,7.60
2023-05-18T01:09:29.324Z,7.90
2023-05-18T01:10:34.877Z,8.45
2023-05-18T01:13:18.072Z,7.50
2023-05-18T01:14:29.292Z,8.20
2023-05-18T01:15:36.290Z,7.60
2023-05-18T01:17:00.371Z,6.60
2023-05-18T01:18:23.475Z,7.20
2023-05-18T01:19:44.923Z,7.20
2023-05-18T01:22:19.796Z,6.70
2023-05-18T01:24:02.892Z,6.60
2023-05-18T01:26:40.419Z,9.20
2023-05-18T01:27:44.576Z,7.40
2023-05-18T01:28:48.661Z,7.60
2023-05-18T01:29:52.115Z,7.10
2023-05-18T01:30:57.506Z,5.50
2023-05-18T01:32:00.004Z,6.90
2023-05-18T01:34:16.551Z,8.40
2023-05-18T01:35:19.452Z,7.60
2023-05-18T01:36:22.501Z,6.20
2023-05-18T01:37:24.843Z,7.90
2023-05-18T01:38:28.030Z,7.60
2023-05-18T01:39:30.171Z,7.50
2023-05-18T01:40:36.699Z,8.45
2023-05-18T01:43:01.835Z,8.50
2023-05-18T01:45:43.113Z,8.30
2023-05-18T01:48:16.188Z,6.80
2023-05-18T01:49:35.134Z,8.50
2023-05-18T01:50:39.975Z,7.20
2023-05-18T01:51:45.525Z,7.30
2023-05-18T01:53:06.553Z,7.30
2023-05-18T01:54:10.202Z,7.40
2023-05-18T01:55:15.414Z,8.60
2023-05-18T01:56:18.308Z,8.50
2023-05-18T01:57:26.967Z,9.10
2023-05-18T01:58:30.258Z,7.70
2023-05-18T01:59:33.224Z,7.30
2023-05-18T02:00:36.510Z,7.90
2023-05-18T02:01:38.857Z,8.70
2023-05-18T02:02:41.542Z,7.60
2023-05-18T02:03:44.490Z,7.36
2023-05-18T02:04:47.190Z,7.70
2023-05-18T02:05:49.377Z,8.20
2023-05-18T02:06:53.143Z,7.80
2023-05-18T02:07:55.361Z,7.60
2023-05-18T02:08:57.883Z,7.80
2023-05-18T02:10:00.203Z,8.20
2023-05-18T02:11:03.313Z,7.20
2023-05-18T02:12:07.167Z,8.18
2023-05-18T02:13:09.596Z,8.20
2023-05-18T02:14:11.978Z,7.80
2023-05-18T02:15:15.112Z,8.36
2023-05-18T02:16:18.393Z,8.40
2023-05-18T02:17:20.700Z,5.20
2023-05-18T02:18:22.635Z,9.11
2023-05-18T02:19:25.994Z,7.90
2023-05-18T02:20:30.377Z,8.60
2023-05-18T02:21:32.903Z,8.20
2023-05-18T02:22:36.898Z,8.30
2023-05-18T02:23:40.828Z,9.50
2023-05-18T02:24:43.041Z,8.30
2023-05-18T02:25:46.456Z,7.90
2023-05-18T02:26:49.111Z,8.10
2023-05-18T02:27:52.078Z,8.70
2023-05-18T02:28:54.482Z,8.36
2023-05-18T02:29:57.948Z,7.70
2023-05-18T02:32:19.336Z,8.70
2023-05-18T02:33:21.807Z,7.45
2023-05-18T02:34:24.124Z,7.40
2023-05-18T02:35:26.391Z,7.00
2023-05-18T02:36:29.031Z,8.80
2023-05-18T02:37:31.348Z,8.10
2023-05-18T02:39:47.213Z,9.10
2023-05-18T02:40:49.573Z,8.50
2023-05-18T02:41:52.319Z,7.50
2023-05-18T02:42:55.491Z,8.60
2023-05-18T02:44:00.161Z,8.30
2023-05-18T02:45:02.881Z,8.91
2023-05-18T02:46:06.576Z,8.30
2023-05-18T02:47:09.424Z,8.10
2023-05-18T02:48:11.864Z,7.70
2023-05-18T02:49:14.561Z,8.55
2023-05-18T02:50:17.356Z,9.10
2023-05-18T02:51:20.195Z,9.00
2023-05-18T02:52:23.033Z,7.64
2023-05-18T02:53:26.262Z,8.91
2023-05-18T02:54:30.953Z,8.80
2023-05-18T02:55:34.065Z,9.20
2023-05-18T02:56:39.295Z,8.90
2023-05-18T02:57:43.343Z,8.90
2023-05-18T02:58:45.687Z,9.20
2023-05-18T02:59:55.551Z,8.80
2023-05-18T03:00:58.883Z,9.60
2023-05-18T03:02:02.003Z,9.90
2023-05-18T03:03:05.344Z,7.60
2023-05-18T03:04:09.440Z,8.40
2023-05-18T03:05:13.431Z,8.60
2023-05-18T03:06:16.884Z,8.30
2023-05-18T03:07:21.087Z,8.18
2023-05-18T03:08:24.063Z,8.10
2023-05-18T03:09:26.372Z,9.10
2023-05-18T03:10:29.749Z,8.10
2023-05-18T03:11:32.045Z,7.70
2023-05-18T03:12:34.445Z,8.70
2023-05-18T03:13:36.484Z,6.50
2023-05-18T03:14:38.540Z,7.60
2023-05-18T03:15:40.775Z,7.50
2023-05-18T03:16:44.492Z,8.00
2023-05-18T03:17:49.016Z,8.50
2023-05-18T03:18:51.445Z,8.10
2023-05-18T03:19:54.481Z,8.50
2023-05-18T03:20:57.146Z,8.27
2023-05-18T03:21:59.595Z,7.80
2023-05-18T03:23:01.990Z,7.90
2023-05-18T03:24:06.308Z,7.00
2023-05-18T03:25:10.447Z,9.00
2023-05-18T03:26:13.829Z,8.60
2023-05-18T03:27:16.835Z,8.10
2023-05-18T03:28:20.098Z,7.80
2023-05-18T03:29:22.954Z,8.20
2023-05-18T03:30:25.895Z,8.40
2023-05-18T03:31:28.298Z,7.40
2023-05-18T03:32:32.041Z,6.30
2023-05-18T03:33:34.687Z,8.10
2023-05-18T03:34:37.050Z,7.00
2023-05-18T03:35:40.764Z,7.80
2023-05-18T03:36:44.024Z,8.10
2023-05-18T03:37:46.726Z,7.70
2023-05-18T03:38:49.090Z,8.36
2023-05-18T03:39:52.203Z,7.70
2023-05-18T03:40:55.545Z,8.00
2023-05-18T03:41:57.879Z,9.80
2023-05-18T03:43:00.174Z,8.20
2023-05-18T03:44:02.818Z,8.50
2023-05-18T03:45:07.776Z,6.20
2023-05-18T03:46:10.596Z,8.40
2023-05-18T03:47:12.991Z,7.90
2023-05-18T03:48:15.561Z,7.60
2023-05-18T03:49:17.851Z,7.30
2023-05-18T03:50:20.647Z,8.10
2023-05-18T03:51:23.034Z,7.10
2023-05-18T03:52:25.766Z,8.00
2023-05-18T03:53:28.321Z,8.60
2023-05-18T03:54:32.134Z,8.00
2023-05-18T03:55:34.969Z,7.90
2023-05-18T03:56:37.557Z,7.60
2023-05-18T03:57:40.516Z,8.10
2023-05-18T03:58:42.972Z,7.82
2023-05-18T03:59:45.763Z,8.09
2023-05-18T04:00:48.152Z,7.90
2023-05-18T04:01:50.884Z,7.10
2023-05-18T04:02:53.657Z,7.60
2023-05-18T04:03:59.225Z,8.30
2023-05-18T04:05:02.496Z,8.10
2023-05-18T04:06:06.174Z,9.00
2023-05-18T04:07:08.444Z,9.10
2023-05-18T04:08:11.380Z,7.70
2023-05-18T04:09:14.819Z,9.45
2023-05-18T04:10:17.903Z,8.10
2023-05-18T04:11:20.808Z,8.10
2023-05-18T04:12:23.485Z,8.30
2023-05-18T04:13:25.768Z,7.70
2023-05-18T04:14:28.651Z,8.40
2023-05-18T04:15:31.143Z,8.64
2023-05-18T04:16:34.952Z,8.80
2023-05-18T04:17:37.572Z,8.10
2023-05-18T04:18:40.793Z,8.60
2023-05-18T04:19:44.068Z,7.30
2023-05-18T04:20:48.412Z,8.20
2023-05-18T04:21:50.855Z,10.10
2023-05-18T04:22:54.132Z,8.70
2023-05-18T04:23:57.368Z,10.40
2023-05-18T04:25:00.034Z,7.60
2023-05-18T04:26:03.355Z,8.50
2023-05-18T04:27:09.111Z,8.20
2023-05-18T04:28:11.922Z,7.80
2023-05-18T04:29:15.643Z,9.60
2023-05-18T04:30:19.223Z,11.30
2023-05-18T04:31:21.539Z,10.40
2023-05-18T04:32:24.035Z,10.10
2023-05-18T04:33:27.732Z,9.10
2023-05-18T04:34:30.404Z,9.70
2023-05-18T04:35:33.510Z,8.09
2023-05-18T04:36:36.202Z,10.40
2023-05-18T04:37:39.162Z,8.80
2023-05-18T04:38:43.479Z,10.70
2023-05-18T04:39:45.791Z,9.40
2023-05-18T04:40:50.339Z,10.40
2023-05-18T04:41:53.009Z,8.60
2023-05-18T04:42:55.481Z,10.18
2023-05-18T04:43:59.634Z,9.50
2023-05-18T04:45:02.570Z,9.00
2023-05-18T04:46:06.758Z,8.60
2023-05-18T04:47:09.615Z,11.10
2023-05-18T04:48:13.064Z,9.20
2023-05-18T04:49:16.170Z,9.70
2023-05-18T04:50:19.957Z,8.80
2023-05-18T04:51:22.292Z,10.30
2023-05-18T04:52:25.039Z,9.60
2023-05-18T04:53:27.242Z,11.30
2023-05-18T04:54:29.659Z,10.50
2023-05-18T04:55:33.119Z,9.70
2023-05-18T04:56:37.677Z,10.00
2023-05-18T04:57:39.988Z,10.90
2023-05-18T04:58:42.818Z,9.60
2023-05-18T04:59:45.284Z,9.00
2023-05-18T05:00:47.705Z,10.10
2023-05-18T05:01:51.237Z,10.00
2023-05-18T05:02:54.941Z,10.20
2023-05-18T05:03:58.991Z,9.60
2023-05-18T05:05:01.600Z,8.30
2023-05-18T05:06:06.202Z,8.40
2023-05-18T05:07:08.598Z,10.00
2023-05-18T05:08:11.362Z,9.55
2023-05-18T05:09:14.716Z,8.90
2023-05-18T05:10:19.322Z,8.70
2023-05-18T05:11:21.830Z,9.90
2023-05-18T05:12:24.746Z,8.60
2023-05-18T05:13:27.531Z,9.00
2023-05-18T05:14:30.001Z,8.09
2023-05-18T05:15:33.644Z,9.40
2023-05-18T05:16:37.058Z,8.73
2023-05-18T05:17:39.556Z,8.20
2023-05-18T05:18:45.936Z,8.50
2023-05-18T05:19:47.946Z,8.30
2023-05-18T05:20:50.335Z,8.60
2023-05-18T05:21:52.509Z,8.30
2023-05-18T05:22:55.435Z,8.20
2023-05-18T05:24:00.860Z,8.90
2023-05-18T05:25:05.212Z,7.90
2023-05-18T05:26:09.647Z,7.70
2023-05-18T05:27:11.875Z,9.40
2023-05-18T05:28:14.165Z,8.10
2023-05-18T05:29:17.353Z,7.70
2023-05-18T05:30:19.990Z,8.70
2023-05-18T05:31:22.312Z,7.00
2023-05-18T05:32:25.072Z,7.20
2023-05-18T05:33:27.937Z,7.90
2023-05-18T05:34:30.185Z,9.00
2023-05-18T05:35:33.812Z,8.50
2023-05-18T05:36:37.672Z,8.30
2023-05-18T05:37:40.546Z,7.40
2023-05-18T05:38:43.501Z,7.50
2023-05-18T05:39:47.536Z,7.09
2023-05-18T05:40:53.797Z,7.90
2023-05-18T05:43:07.490Z,7.90
2023-05-18T05:44:10.639Z,6.10
2023-05-18T05:45:13.790Z,7.40
2023-05-18T05:46:23.600Z,8.20
2023-05-18T05:47:30.266Z,8.10
2023-05-18T05:48:37.457Z,6.60
2023-05-18T05:49:42.783Z,8.10
2023-05-18T05:50:47.596Z,6.90
2023-05-18T05:51:52.479Z,5.60
2023-05-18T05:52:55.369Z,6.80
2023-05-18T05:54:00.675Z,7.30
2023-05-18T05:55:04.559Z,6.60
2023-05-18T05:56:11.091Z,10.10
2023-05-18T05:57:15.481Z,6.60
2023-05-18T05:58:17.974Z,7.80
2023-05-18T05:59:24.545Z,6.20
2023-05-18T06:00:28.957Z,8.10
2023-05-18T06:01:33.053Z,7.10
2023-05-18T06:02:36.894Z,7.20
2023-05-18T06:03:39.430Z,6.60
2023-05-18T06:04:45.635Z,6.80
2023-05-18T06:05:47.951Z,6.80
2023-05-18T06:06:52.031Z,7.50
2023-05-18T06:07:55.616Z,6.00
2023-05-18T06:08:57.850Z,6.60
2023-05-18T06:10:00.187Z,7.10
2023-05-18T06:11:02.895Z,6.90
2023-05-18T06:12:06.620Z,6.40
2023-05-18T06:13:16.549Z,7.30
2023-05-18T06:14:30.781Z,7.00
2023-05-18T06:15:33.672Z,6.70
2023-05-18T06:17:53.050Z,6.80
2023-05-18T06:20:06.223Z,7.50
2023-05-18T06:21:08.998Z,7.90
2023-05-18T06:22:11.730Z,6.50
2023-05-18T06:23:16.943Z,6.90
2023-05-18T06:24:37.442Z,4.40
2023-05-18T06:25:45.603Z,6.20
2023-05-18T06:26:50.370Z,4.70
2023-05-18T06:29:04.894Z,6.10
2023-05-18T06:31:23.693Z,4.50
2023-05-18T06:32:28.113Z,7.00
2023-05-18T06:33:31.856Z,6.20
2023-05-18T06:34:34.345Z,6.70
2023-05-18T06:36:46.125Z,7.70
2023-05-18T06:37:48.287Z,6.30
2023-05-18T06:38:50.515Z,5.70
2023-05-18T06:39:52.799Z,7.30
2023-05-18T06:40:57.147Z,6.70
2023-05-18T06:42:00.778Z,6.10
2023-05-18T06:43:05.140Z,5.20
2023-05-18T06:44:10.349Z,7.10
2023-05-18T06:45:14.522Z,6.80
2023-05-18T06:46:27.845Z,5.80
2023-05-18T06:47:35.221Z,5.70
2023-05-18T06:48:38.062Z,6.50
2023-05-18T06:49:42.810Z,6.40
2023-05-18T06:50:51.014Z,6.70
2023-05-18T06:51:56.894Z,6.30
2023-05-18T06:53:03.893Z,6.90
2023-05-18T06:54:07.639Z,5.80
2023-05-18T06:55:10.494Z,5.90
2023-05-18T06:56:18.412Z,6.50
2023-05-18T06:57:24.902Z,3.40
2023-05-18T06:58:27.262Z,6.20
2023-05-18T06:59:31.413Z,5.70
2023-05-18T07:00:34.599Z,4.40
2023-05-18T07:01:38.038Z,5.10
2023-05-18T07:03:51.571Z,6.20
2023-05-18T07:04:54.014Z,5.40
2023-05-18T07:05:56.223Z,5.30
2023-05-18T07:06:59.734Z,5.60
2023-05-18T07:08:04.896Z,5.00
2023-05-18T07:09:09.313Z,4.00
2023-05-18T07:10:13.071Z,5.00
2023-05-18T07:11:15.452Z,4.20
2023-05-18T07:12:17.754Z,5.20
2023-05-18T07:13:20.235Z,4.20
2023-05-18T07:14:24.327Z,5.20
2023-05-18T07:15:26.571Z,4.00
2023-05-18T07:16:31.359Z,4.30
2023-05-18T07:17:33.669Z,3.80
2023-05-18T07:18:36.455Z,4.60
2023-05-18T07:19:40.570Z,4.40
2023-05-18T07:20:48.787Z,3.10
2023-05-18T07:21:51.077Z,4.40
2023-05-18T07:24:09.752Z,5.20
2023-05-18T07:25:11.987Z,3.90
2023-05-18T07:27:24.098Z,4.90
2023-05-18T07:28:26.343Z,4.10
2023-05-18T07:29:29.606Z,5.00
2023-05-18T07:31:47.937Z,5.10
2023-05-18T07:32:53.095Z,4.00
2023-05-18T07:33:57.011Z,4.50
2023-05-18T07:35:01.778Z,4.70
2023-05-18T07:36:07.267Z,3.80
2023-05-18T07:37:09.812Z,3.10
2023-05-18T07:38:14.625Z,3.90
2023-05-18T07:39:21.881Z,3.70
2023-05-18T07:40:25.147Z,4.30
2023-05-18T07:41:30.439Z,4.50
2023-05-18T07:42:32.801Z,4.90
2023-05-18T07:43:36.233Z,4.00
2023-05-18T07:44:40.119Z,5.30
2023-05-18T07:45:42.650Z,4.20
2023-05-18T07:46:47.224Z,4.80
2023-05-18T07:47:51.617Z,3.80
2023-05-18T07:48:54.843Z,4.80
2023-05-18T07:49:58.758Z,4.82
2023-05-18T07:51:03.492Z,4.80
2023-05-18T07:52:08.334Z,4.80
2023-05-18T07:53:21.282Z,5.20
2023-05-18T07:54:27.500Z,5.60
2023-05-18T07:55:34.806Z,2.50
2023-05-18T07:56:38.724Z,4.70
2023-05-18T07:58:51.115Z,4.50
2023-05-18T07:59:53.477Z,5.45
2023-05-18T08:00:56.087Z,5.00
2023-05-18T08:01:59.157Z,4.30
2023-05-18T08:03:01.784Z,4.73
2023-05-18T08:04:04.820Z,4.30
2023-05-18T08:05:08.252Z,5.00
2023-05-18T08:06:11.043Z,4.50
2023-05-18T08:07:18.166Z,5.30
2023-05-18T08:08:20.327Z,4.20
2023-05-18T08:09:23.089Z,5.50
2023-05-18T08:10:25.908Z,5.40
2023-05-18T08:11:28.212Z,5.90
2023-05-18T08:12:30.405Z,5.50
2023-05-18T08:13:34.343Z,6.00
2023-05-18T08:14:36.805Z,6.90
2023-05-18T08:15:39.710Z,1.00
2023-05-18T08:16:42.382Z,8.50
2023-05-18T08:17:45.208Z,7.90
2023-05-18T08:18:48.816Z,7.18
2023-05-18T08:19:51.227Z,5.60
2023-05-18T08:20:54.440Z,7.60
2023-05-18T08:21:56.786Z,8.00
2023-05-18T08:23:00.696Z,6.30
2023-05-18T08:24:03.921Z,0.00
2023-05-18T08:25:07.732Z,8.10
2023-05-18T08:26:13.816Z,5.00
2023-05-18T08:27:16.635Z,7.30
2023-05-18T08:29:30.138Z,7.30
2023-05-18T08:30:32.390Z,8.20
2023-05-18T08:31:37.900Z,8.00
2023-05-18T08:32:40.464Z,8.50
2023-05-18T08:33:43.303Z,8.90
2023-05-18T08:34:49.075Z,11.80
2023-05-18T08:35:51.452Z,11.70
2023-05-18T08:36:53.763Z,11.40
2023-05-18T08:37:55.971Z,11.90
2023-05-18T08:38:58.680Z,11.00
2023-05-18T08:40:01.197Z,10.80
2023-05-18T08:41:22.040Z,11.40
2023-05-18T08:42:41.507Z,11.30
2023-05-18T08:43:38.517Z,10.40
2023-05-18T08:44:46.722Z,5.80
2023-05-18T08:47:09.863Z,11.30
2023-05-18T08:48:12.810Z,11.30
2023-05-18T08:49:17.679Z,10.09
2023-05-18T08:50:23.452Z,10.70
2023-05-18T08:51:28.328Z,9.30
2023-05-18T08:52:35.161Z,10.00
2023-05-18T08:53:38.153Z,12.30
2023-05-18T08:54:41.932Z,10.90
2023-05-18T08:55:45.711Z,12.00
2023-05-18T08:56:48.974Z,11.70
2023-05-18T08:57:54.507Z,12.18
2023-05-18T08:58:57.958Z,12.20
2023-05-18T09:00:02.227Z,10.50
2023-05-18T09:01:04.751Z,10.80
2023-05-18T09:02:08.898Z,10.40
2023-05-18T09:03:11.795Z,13.70
2023-05-18T09:04:14.725Z,13.80
2023-05-18T09:05:20.551Z,13.10
2023-05-18T09:06:24.244Z,12.60
2023-05-18T09:07:26.550Z,12.40
2023-05-18T09:08:29.093Z,11.20
2023-05-18T09:09:31.613Z,12.80
2023-05-18T09:10:35.424Z,11.00
2023-05-18T09:11:37.870Z,10.90
2023-05-18T09:12:42.530Z,11.50
2023-05-18T09:13:45.440Z,9.80
2023-05-18T09:14:48.505Z,10.50
2023-05-18T09:15:50.721Z,9.64
2023-05-18T09:16:53.431Z,11.10
2023-05-18T09:17:56.258Z,10.70
2023-05-18T09:18:59.922Z,11.20
2023-05-18T09:20:03.321Z,10.40
2023-05-18T09:21:06.446Z,8.90
2023-05-18T09:22:08.802Z,10.20
2023-05-18T09:23:14.051Z,9.60
2023-05-18T09:24:17.147Z,8.80
2023-05-18T09:25:22.004Z,8.40
2023-05-18T09:26:24.483Z,8.90
2023-05-18T09:27:27.636Z,9.40
2023-05-18T09:28:41.246Z,9.20
2023-05-18T09:29:54.180Z,10.50
2023-05-18T09:30:57.869Z,8.90
2023-05-18T09:32:04.972Z,8.90
2023-05-18T09:34:23.393Z,9.80
2023-05-18T09:35:25.625Z,10.90
2023-05-18T09:36:28.582Z,9.70
2023-05-18T09:38:46.412Z,9.90
2023-05-18T09:40:02.329Z,9.90
2023-05-18T09:41:09.275Z,8.60
2023-05-18T09:42:11.915Z,10.00
2023-05-18T09:43:16.691Z,10.50
2023-05-18T09:44:23.733Z,9.70
2023-05-18T09:45:26.333Z,8.90
2023-05-18T09:46:34.987Z,6.80
2023-05-18T09:47:37.656Z,9.80
2023-05-18T09:48:47.344Z,8.50
2023-05-18T09:49:49.510Z,11.40
2023-05-18T09:50:52.018Z,9.30
2023-05-18T09:51:54.226Z,9.10
2023-05-18T09:52:56.315Z,7.70
2023-05-18T09:53:59.296Z,9.70
2023-05-18T09:55:01.634Z,9.60
2023-05-18T09:56:06.134Z,8.10
2023-05-18T09:57:11.238Z,8.20
2023-05-18T09:58:13.851Z,9.60
2023-05-18T09:59:16.407Z,9.91
2023-05-18T10:00:21.684Z,10.50
2023-05-18T10:01:25.546Z,9.90
2023-05-18T10:02:28.000Z,9.80
2023-05-18T10:04:45.442Z,10.20
2023-05-18T10:05:48.200Z,9.50
2023-05-18T10:06:51.056Z,9.10
2023-05-18T10:07:55.452Z,9.50
2023-05-18T10:08:58.447Z,9.80
2023-05-18T10:10:02.286Z,9.50
2023-05-18T10:11:05.626Z,9.10
2023-05-18T10:12:17.062Z,9.80
2023-05-18T10:13:19.686Z,9.30
2023-05-18T10:14:25.756Z,10.00
2023-05-18T10:15:28.003Z,8.50
2023-05-18T10:16:31.525Z,9.10
2023-05-18T10:17:34.389Z,8.20
2023-05-18T10:18:39.045Z,10.00
2023-05-18T10:19:42.260Z,9.00
2023-05-18T10:20:47.410Z,7.80
2023-05-18T10:21:52.256Z,9.40
2023-05-18T10:22:56.034Z,8.40
2023-05-18T10:24:00.717Z,9.50
2023-05-18T10:25:06.219Z,9.70
2023-05-18T10:26:10.507Z,8.70
2023-05-18T10:27:14.205Z,8.60
2023-05-18T10:29:38.279Z,11.00
2023-05-18T10:30:41.024Z,10.30
2023-05-18T10:31:45.460Z,8.90
2023-05-18T10:32:48.609Z,9.70
2023-05-18T10:33:52.916Z,9.00
2023-05-18T10:34:59.791Z,9.30
2023-05-18T10:36:06.728Z,8.50
2023-05-18T10:42:23.338Z,9.40
2023-05-18T10:43:27.561Z,9.70
2023-05-18T10:45:47.608Z,9.00
2023-05-18T10:46:50.018Z,8.80
2023-05-18T10:49:03.788Z,9.30
2023-05-18T10:50:08.794Z,9.50
2023-05-18T10:51:12.707Z,8.60
2023-05-18T10:52:20.819Z,10.40
2023-05-18T10:53:25.801Z,9.70
2023-05-18T10:54:28.538Z,9.50
2023-05-18T10:55:31.137Z,9.30
2023-05-18T10:56:34.725Z,9.91
2023-05-18T10:59:19.347Z,9.40
2023-05-18T11:00:22.383Z,9.20
2023-05-18T11:01:25.483Z,10.20
2023-05-18T11:03:44.805Z,9.70
2023-05-18T11:04:50.190Z,9.70
2023-05-18T11:06:07.891Z,9.10
2023-05-18T11:07:14.656Z,9.70
2023-05-18T11:08:27.555Z,9.80
2023-05-18T11:09:30.758Z,10.00
2023-05-18T11:10:43.807Z,9.30
2023-05-18T11:11:53.958Z,9.70
2023-05-18T11:13:00.834Z,10.30
2023-05-18T11:14:03.177Z,9.60
2023-05-18T11:15:07.030Z,8.30
2023-05-18T11:16:37.979Z,10.40
2023-05-18T11:17:43.602Z,8.60
2023-05-18T11:18:49.657Z,9.00
2023-05-18T11:20:08.180Z,9.40
2023-05-18T11:21:39.694Z,11.20
2023-05-18T11:22:49.091Z,10.20
2023-05-18T11:25:29.247Z,10.10
2023-05-18T11:26:32.024Z,10.30
2023-05-18T11:27:34.600Z,11.40
2023-05-18T11:28:44.766Z,8.00
2023-05-18T11:29:47.835Z,10.50
2023-05-18T11:30:52.122Z,9.80
2023-05-18T11:31:56.389Z,9.80
2023-05-18T11:33:17.454Z,11.10
2023-05-18T11:34:43.617Z,8.90
2023-05-18T11:36:01.668Z,8.80
2023-05-18T11:38:23.833Z,10.90
2023-05-18T11:39:29.423Z,9.70
2023-05-18T11:40:50.402Z,9.73
2023-05-18T11:42:02.114Z,9.40
2023-05-18T11:43:04.468Z,8.70
2023-05-18T11:44:15.352Z,9.64
2023-05-18T11:46:33.281Z,9.70
2023-05-18T11:47:37.094Z,9.70
2023-05-18T11:48:41.275Z,9.80
2023-05-18T11:50:57.657Z,12.60
2023-05-18T11:52:15.907Z,9.90
2023-05-18T11:53:18.490Z,11.60
2023-05-18T11:54:24.508Z,10.10
2023-05-18T11:55:30.948Z,10.40
2023-05-18T11:56:33.426Z,9.30
2023-05-18T11:57:39.438Z,9.80
2023-05-18T11:58:41.921Z,9.90
2023-05-18T11:59:46.038Z,9.70
2023-05-18T12:00:54.336Z,11.30
2023-05-18T12:02:01.034Z,10.00
2023-05-18T12:03:05.028Z,9.70
2023-05-18T12:04:07.572Z,11.30
2023-05-18T12:05:12.268Z,10.60
2023-05-18T12:06:15.667Z,9.30
2023-05-18T12:07:19.965Z,9.90
2023-05-18T12:08:28.341Z,8.80
2023-05-18T12:09:38.716Z,10.10
2023-05-18T12:10:43.950Z,8.90
2023-05-18T12:11:46.321Z,9.00
2023-05-18T12:12:53.283Z,9.70
2023-05-18T12:13:59.575Z,10.70
2023-05-18T12:15:06.026Z,4.40
2023-05-18T12:16:13.268Z,11.60
2023-05-18T12:17:15.815Z,10.70
2023-05-18T12:18:18.916Z,11.30
2023-05-18T12:19:24.569Z,10.00
2023-05-18T12:20:32.044Z,10.40
2023-05-18T12:21:41.524Z,11.20
2023-05-18T12:22:50.149Z,10.60
2023-05-18T12:24:00.459Z,10.70
2023-05-18T12:25:02.838Z,9.30
2023-05-18T12:27:15.813Z,10.90
2023-05-18T12:28:18.168Z,8.40
2023-05-18T12:29:21.004Z,11.20
2023-05-18T12:30:25.820Z,10.64
2023-05-18T12:31:28.242Z,10.50
2023-05-18T12:32:30.491Z,10.50
2023-05-18T12:33:34.267Z,9.10
2023-05-18T12:34:38.097Z,10.00
2023-05-18T12:35:40.640Z,9.40
2023-05-18T12:36:51.476Z,10.30
2023-05-18T12:37:54.884Z,10.00
2023-05-18T12:38:57.575Z,9.00
2023-05-18T12:40:01.147Z,11.50
2023-05-18T12:42:14.180Z,12.00
2023-05-18T12:43:16.711Z,10.30
2023-05-18T12:44:19.016Z,10.90
2023-05-18T12:45:23.774Z,11.20
2023-05-18T12:46:26.340Z,11.50
2023-05-18T12:47:32.257Z,10.70
2023-05-18T12:50:11.108Z,10.40
2023-05-18T12:51:19.437Z,11.70
2023-05-18T12:52:21.656Z,11.20
2023-05-18T12:53:24.933Z,9.80
2023-05-18T12:54:28.713Z,10.40
2023-05-18T12:59:00.275Z,10.90
2023-05-18T13:00:03.872Z,9.70
2023-05-18T13:01:08.080Z,10.60
2023-05-18T13:02:15.236Z,9.10
2023-05-18T13:03:19.699Z,10.90
2023-05-18T13:04:22.556Z,10.50
2023-05-18T13:05:25.115Z,10.45
2023-05-18T13:06:28.059Z,9.60
2023-05-18T13:07:30.488Z,10.36
2023-05-18T13:08:34.569Z,9.60
2023-05-18T13:09:41.410Z,9.60
2023-05-18T13:10:44.624Z,11.30
2023-05-18T13:12:03.611Z,11.10
2023-05-18T13:12:55.611Z,10.70
2023-05-18T13:14:02.529Z,10.30
2023-05-18T13:16:27.528Z,10.60
2023-05-18T13:17:29.809Z,9.64
2023-05-18T13:18:32.408Z,11.50
2023-05-18T13:19:34.734Z,11.20
2023-05-18T13:20:48.200Z,11.10
2023-05-18T13:21:57.942Z,11.00
2023-05-18T13:24:27.651Z,9.80
2023-05-18T13:25:32.502Z,7.90
2023-05-18T13:26:35.162Z,10.00
2023-05-18T13:27:38.413Z,10.80
2023-05-18T13:28:40.588Z,10.10
2023-05-18T13:29:43.356Z,11.50
2023-05-18T13:30:47.011Z,9.30
2023-05-18T13:31:49.594Z,7.10
2023-05-18T13:32:52.472Z,8.60
2023-05-18T13:35:11.392Z,12.10
2023-05-18T13:36:14.146Z,11.40
2023-05-18T13:37:19.011Z,11.70
2023-05-18T13:38:21.306Z,10.20
2023-05-18T13:40:33.849Z,13.00
2023-05-18T13:41:36.638Z,10.36
2023-05-18T13:42:39.119Z,11.20
2023-05-18T13:43:43.376Z,10.10
2023-05-18T13:44:45.719Z,11.00
2023-05-18T13:45:48.041Z,13.10
2023-05-18T13:46:50.552Z,10.40
2023-05-18T13:47:52.871Z,12.40
2023-05-18T13:48:55.351Z,11.50
2023-05-18T13:49:58.789Z,11.20
2023-05-18T13:52:16.586Z,11.70
2023-05-18T13:53:19.359Z,12.10
2023-05-18T13:54:22.168Z,11.30
2023-05-18T13:55:24.366Z,12.50
2023-05-18T13:56:27.611Z,11.20
2023-05-18T13:57:31.952Z,9.73
2023-05-18T13:58:37.226Z,10.50
2023-05-18T14:00:56.781Z,9.90
2023-05-18T14:01:58.978Z,10.80
2023-05-18T14:03:01.780Z,11.00
2023-05-18T14:04:04.373Z,11.40
2023-05-18T14:05:07.792Z,11.50
2023-05-18T14:06:10.619Z,11.70
2023-05-18T14:07:19.473Z,11.90
2023-05-18T14:08:22.843Z,11.00
2023-05-18T14:09:25.164Z,11.20
2023-05-18T14:10:27.457Z,11.50
2023-05-18T14:11:29.576Z,11.10
2023-05-18T14:12:32.364Z,11.60
2023-05-18T14:13:34.909Z,10.60
2023-05-18T14:14:37.571Z,11.70
2023-05-18T14:15:39.760Z,12.00
2023-05-18T14:16:42.242Z,11.10
2023-05-18T14:17:44.571Z,10.60
2023-05-18T14:18:47.211Z,10.30
2023-05-18T14:19:49.388Z,12.30
2023-05-18T14:20:51.708Z,11.70
2023-05-18T14:21:55.073Z,11.10
2023-05-18T14:22:57.350Z,10.90
2023-05-18T14:23:59.744Z,9.80
2023-05-18T14:25:02.868Z,10.60
2023-05-18T14:26:06.693Z,9.30
2023-05-18T14:27:11.902Z,10.80
2023-05-18T14:28:14.289Z,11.40
2023-05-18T14:29:16.568Z,11.10
2023-05-18T14:30:18.903Z,12.10
2023-05-18T14:31:21.182Z,9.70
2023-05-18T14:32:23.914Z,10.90
2023-05-18T14:34:41.595Z,10.50
2023-05-18T14:35:43.942Z,12.10
2023-05-18T14:36:47.149Z,9.80
2023-05-18T14:37:50.075Z,11.70
2023-05-18T14:38:52.189Z,12.00
2023-05-18T14:39:54.378Z,12.10
2023-05-18T14:40:56.924Z,12.10
2023-05-18T14:41:59.660Z,10.20
2023-05-18T14:43:01.926Z,9.90
2023-05-18T14:44:04.563Z,12.70
2023-05-18T14:45:08.548Z,12.50
2023-05-18T14:46:11.640Z,11.20
2023-05-18T14:47:13.917Z,13.00
2023-05-18T14:48:16.263Z,10.40
2023-05-18T14:49:19.628Z,11.50
2023-05-18T14:50:21.962Z,11.60
2023-05-18T14:51:23.958Z,11.60
2023-05-18T14:52:26.460Z,10.11
2023-05-18T14:53:28.509Z,11.90
2023-05-18T14:54:30.691Z,11.90
2023-05-18T14:55:35.099Z,13.90
2023-05-18T14:56:38.784Z,11.50
2023-05-18T14:57:41.362Z,12.30
2023-05-18T14:58:43.425Z,11.50
2023-05-18T14:59:45.677Z,12.20
2023-05-18T15:00:47.992Z,12.80
2023-05-18T15:01:51.374Z,12.40
2023-05-18T15:02:53.757Z,12.10
2023-05-18T15:03:56.072Z,10.50
2023-05-18T15:04:59.449Z,11.60
2023-05-18T15:06:03.569Z,10.80
2023-05-18T15:07:06.944Z,12.60
2023-05-18T15:08:09.290Z,12.50
2023-05-18T15:09:11.806Z,11.60
2023-05-18T15:10:14.794Z,12.20
2023-05-18T15:11:16.936Z,13.10
2023-05-18T15:12:19.873Z,12.60